sensor_id;sensor_type;location;lat;lon;timestamp;pressure;altitude;pressure_sealevel;temperature;humidity
62510;BME280;48558;48.242;11.654;2023-06-04T00:02:21;96201.50;;;12.19;100.00
62510;BME280;48558;48.242;11.654;2023-06-04T00:06:33;96201.31;;;12.23;100.00
62510;BME280;48558;48.242;11.654;2023-06-04T00:10:47;96208.00;;;12.31;100.00
62510;BME280;48558;48.242;11.654;2023-06-04T00:15:00;96189.78;;;12.54;100.00
62510;BME280;48558;48.242;11.654;2023-06-04T00:19:22;96187.06;;;12.15;100.00
62510;BME280;48558;48.242;11.654;2023-06-04T00:23:35;96186.38;;;12.06;100.00
62510;BME280;48558;48.242;11.654;2023-06-04T00:27:48;96192.41;;;12.04;100.00
62510;BME280;48558;48.242;11.654;2023-06-04T00:32:01;96193.25;;;11.96;100.00
62510;BME280;48558;48.242;11.654;2023-06-04T00:36:15;96191.31;;;11.87;100.00
62510;BME280;48558;48.242;11.654;2023-06-04T00:40:27;96195.03;;;11.84;100.00
62510;BME280;48558;48.242;11.654;2023-06-04T00:44:40;96202.78;;;11.95;100.00
62510;BME280;48558;48.242;11.654;2023-06-04T00:48:57;96203.50;;;11.81;100.00
62510;BME280;48558;48.242;11.654;2023-06-04T00:53:12;96198.47;;;11.56;100.00
62510;BME280;48558;48.242;11.654;2023-06-04T00:57:25;96204.84;;;11.38;100.00
62510;BME280;48558;48.242;11.654;2023-06-04T01:01:48;96196.09;;;11.39;100.00
62510;BME280;48558;48.242;11.654;2023-06-04T01:06:24;96201.50;;;11.34;100.00
62510;BME280;48558;48.242;11.654;2023-06-04T01:10:54;96194.84;;;11.17;100.00
62510;BME280;48558;48.242;11.654;2023-06-04T01:15:09;96192.31;;;10.95;100.00
62510;BME280;48558;48.242;11.654;2023-06-04T01:24:07;96192.47;;;11.01;100.00
62510;BME280;48558;48.242;11.654;2023-06-04T01:28:20;96185.47;;;10.81;100.00
62510;BME280;48558;48.242;11.654;2023-06-04T01:32:33;96200.38;;;10.75;100.00
62510;BME280;48558;48.242;11.654;2023-06-04T01:36:46;96201.66;;;10.65;100.00
62510;BME280;48558;48.242;11.654;2023-06-04T01:40:59;96203.09;;;10.51;100.00
62510;BME280;48558;48.242;11.654;2023-06-04T01:45:23;96197.91;;;10.35;100.00
62510;BME280;48558;48.242;11.654;2023-06-04T01:49:36;96210.59;;;10.51;100.00
62510;BME280;48558;48.242;11.654;2023-06-04T01:53:49;96214.31;;;10.39;100.00
62510;BME280;48558;48.242;11.654;2023-06-04T01:58:12;96217.28;;;10.17;100.00
62510;BME280;48558;48.242;11.654;2023-06-04T02:02:38;96225.69;;;10.14;100.00
62510;BME280;48558;48.242;11.654;2023-06-04T02:06:52;96223.53;;;9.90;100.00
62510;BME280;48558;48.242;11.654;2023-06-04T02:11:05;96222.91;;;9.77;100.00
62510;BME280;48558;48.242;11.654;2023-06-04T02:15:18;96216.78;;;9.73;100.00
62510;BME280;48558;48.242;11.654;2023-06-04T02:19:30;96225.53;;;9.72;100.00
62510;BME280;48558;48.242;11.654;2023-06-04T02:23:45;96228.28;;;9.72;100.00
62510;BME280;48558;48.242;11.654;2023-06-04T02:27:58;96222.16;;;9.68;100.00
62510;BME280;48558;48.242;11.654;2023-06-04T02:32:11;96225.22;;;9.61;100.00
62510;BME280;48558;48.242;11.654;2023-06-04T02:36:24;96217.06;;;9.57;100.00
62510;BME280;48558;48.242;11.654;2023-06-04T02:40:38;96225.34;;;9.57;100.00
62510;BME280;48558;48.242;11.654;2023-06-04T02:44:51;96207.84;;;9.42;100.00
62510;BME280;48558;48.242;11.654;2023-06-04T02:49:04;96228.56;;;9.56;100.00
62510;BME280;48558;48.242;11.654;2023-06-04T02:53:16;96213.84;;;9.50;100.00
62510;BME280;48558;48.242;11.654;2023-06-04T02:57:29;96244.94;;;9.59;100.00
62510;BME280;48558;48.242;11.654;2023-06-04T03:01:42;96244.31;;;9.37;100.00
62510;BME280;48558;48.242;11.654;2023-06-04T03:05:55;96240.34;;;9.38;100.00
62510;BME280;48558;48.242;11.654;2023-06-04T03:10:08;96239.69;;;9.34;100.00
62510;BME280;48558;48.242;11.654;2023-06-04T03:14:22;96245.94;;;9.25;100.00
62510;BME280;48558;48.242;11.654;2023-06-04T03:18:41;96246.88;;;9.22;100.00
62510;BME280;48558;48.242;11.654;2023-06-04T03:23:04;96249.47;;;9.26;100.00
62510;BME280;48558;48.242;11.654;2023-06-04T03:27:17;96244.75;;;9.26;100.00
62510;BME280;48558;48.242;11.654;2023-06-04T03:31:30;96256.22;;;9.34;100.00
62510;BME280;48558;48.242;11.654;2023-06-04T03:35:44;96256.91;;;9.56;100.00
62510;BME280;48558;48.242;11.654;2023-06-04T03:39:57;96254.75;;;9.51;100.00
62510;BME280;48558;48.242;11.654;2023-06-04T03:44:15;96267.66;;;9.63;100.00
62510;BME280;48558;48.242;11.654;2023-06-04T03:48:29;96261.09;;;9.70;100.00
62510;BME280;48558;48.242;11.654;2023-06-04T03:52:41;96267.34;;;9.79;100.00
62510;BME280;48558;48.242;11.654;2023-06-04T03:56:54;96259.56;;;9.87;100.00
62510;BME280;48558;48.242;11.654;2023-06-04T04:01:06;96266.16;;;9.98;100.00
62510;BME280;48558;48.242;11.654;2023-06-04T04:05:33;96265.69;;;9.91;100.00
62510;BME280;48558;48.242;11.654;2023-06-04T04:09:45;96276.44;;;10.07;100.00
62510;BME280;48558;48.242;11.654;2023-06-04T04:13:58;96266.81;;;10.12;100.00
62510;BME280;48558;48.242;11.654;2023-06-04T04:18:10;96273.09;;;10.30;100.00
62510;BME280;48558;48.242;11.654;2023-06-04T04:22:23;96275.69;;;10.43;100.00
62510;BME280;48558;48.242;11.654;2023-06-04T04:26:46;96279.66;;;10.69;100.00
62510;BME280;48558;48.242;11.654;2023-06-04T04:30:58;96283.13;;;10.97;100.00
62510;BME280;48558;48.242;11.654;2023-06-04T04:35:14;96290.91;;;11.07;100.00
62510;BME280;48558;48.242;11.654;2023-06-04T04:39:30;96287.22;;;11.10;100.00
62510;BME280;48558;48.242;11.654;2023-06-04T04:43:42;96296.16;;;11.38;100.00
62510;BME280;48558;48.242;11.654;2023-06-04T04:47:55;96287.34;;;11.48;100.00
62510;BME280;48558;48.242;11.654;2023-06-04T04:52:08;96290.78;;;11.67;100.00
62510;BME280;48558;48.242;11.654;2023-06-04T04:56:21;96304.53;;;11.85;100.00
62510;BME280;48558;48.242;11.654;2023-06-04T05:00:34;96295.28;;;11.88;100.00
62510;BME280;48558;48.242;11.654;2023-06-04T05:04:47;96307.41;;;12.14;100.00
62510;BME280;48558;48.242;11.654;2023-06-04T05:09:09;96309.09;;;12.21;100.00
62510;BME280;48558;48.242;11.654;2023-06-04T05:13:22;96316.00;;;12.40;100.00
62510;BME280;48558;48.242;11.654;2023-06-04T05:17:35;96305.69;;;12.55;100.00
62510;BME280;48558;48.242;11.654;2023-06-04T05:21:48;96322.56;;;12.66;100.00
62510;BME280;48558;48.242;11.654;2023-06-04T05:26:11;96327.06;;;12.78;100.00
62510;BME280;48558;48.242;11.654;2023-06-04T05:30:31;96322.28;;;12.93;100.00
62510;BME280;48558;48.242;11.654;2023-06-04T05:34:43;96323.28;;;13.20;100.00
62510;BME280;48558;48.242;11.654;2023-06-04T05:39:04;96333.50;;;13.43;100.00
62510;BME280;48558;48.242;11.654;2023-06-04T05:43:16;96326.13;;;13.40;100.00
62510;BME280;48558;48.242;11.654;2023-06-04T05:47:29;96337.69;;;13.53;100.00
62510;BME280;48558;48.242;11.654;2023-06-04T05:51:42;96333.72;;;13.74;100.00
62510;BME280;48558;48.242;11.654;2023-06-04T05:55:54;96335.44;;;13.72;100.00
62510;BME280;48558;48.242;11.654;2023-06-04T06:00:07;96341.94;;;13.83;100.00
62510;BME280;48558;48.242;11.654;2023-06-04T06:04:23;96348.06;;;14.07;100.00
62510;BME280;48558;48.242;11.654;2023-06-04T06:08:36;96352.59;;;14.40;100.00
62510;BME280;48558;48.242;11.654;2023-06-04T06:12:49;96348.19;;;14.53;100.00
62510;BME280;48558;48.242;11.654;2023-06-04T06:17:02;96351.84;;;14.85;100.00
62510;BME280;48558;48.242;11.654;2023-06-04T06:21:15;96351.19;;;14.95;100.00
62510;BME280;48558;48.242;11.654;2023-06-04T06:25:28;96352.56;;;15.05;100.00
62510;BME280;48558;48.242;11.654;2023-06-04T06:29:40;96362.94;;;15.31;100.00
62510;BME280;48558;48.242;11.654;2023-06-04T06:33:54;96361.41;;;15.55;100.00
62510;BME280;48558;48.242;11.654;2023-06-04T06:38:06;96365.78;;;15.67;100.00
62510;BME280;48558;48.242;11.654;2023-06-04T06:42:19;96377.56;;;15.83;100.00
62510;BME280;48558;48.242;11.654;2023-06-04T06:46:32;96376.69;;;16.02;100.00
62510;BME280;48558;48.242;11.654;2023-06-04T06:50:44;96378.94;;;16.35;99.63
62510;BME280;48558;48.242;11.654;2023-06-04T06:54:57;96373.69;;;16.54;100.00
62510;BME280;48558;48.242;11.654;2023-06-04T06:59:09;96374.47;;;16.54;100.00
62510;BME280;48558;48.242;11.654;2023-06-04T07:03:22;96365.19;;;16.79;100.00
62510;BME280;48558;48.242;11.654;2023-06-04T07:07:35;96367.25;;;16.84;95.83
62510;BME280;48558;48.242;11.654;2023-06-04T07:11:58;96371.59;;;17.07;98.24
62510;BME280;48558;48.242;11.654;2023-06-04T07:16:10;96379.25;;;17.12;98.06
62510;BME280;48558;48.242;11.654;2023-06-04T07:20:33;96367.34;;;17.40;93.26
62510;BME280;48558;48.242;11.654;2023-06-04T07:24:46;96364.84;;;17.69;90.95
62510;BME280;48558;48.242;11.654;2023-06-04T07:29:06;96371.97;;;17.65;86.65
62510;BME280;48558;48.242;11.654;2023-06-04T07:33:19;96365.84;;;18.11;82.53
62510;BME280;48558;48.242;11.654;2023-06-04T07:37:32;96356.91;;;18.23;86.82
62510;BME280;48558;48.242;11.654;2023-06-04T07:41:44;96364.22;;;18.59;86.98
62510;BME280;48558;48.242;11.654;2023-06-04T07:45:57;96357.13;;;19.05;80.99
62510;BME280;48558;48.242;11.654;2023-06-04T07:50:10;96362.31;;;19.36;81.54
62510;BME280;48558;48.242;11.654;2023-06-04T07:54:22;96370.13;;;19.49;69.45
62510;BME280;48558;48.242;11.654;2023-06-04T07:58:36;96365.19;;;20.68;64.35
62510;BME280;48558;48.242;11.654;2023-06-04T08:02:48;96367.78;;;21.27;60.74
62510;BME280;48558;48.242;11.654;2023-06-04T08:07:03;96379.31;;;20.09;67.21
62510;BME280;48558;48.242;11.654;2023-06-04T08:11:15;96377.50;;;21.26;66.36
62510;BME280;48558;48.242;11.654;2023-06-04T08:15:28;96361.75;;;21.55;63.92
62510;BME280;48558;48.242;11.654;2023-06-04T08:19:40;96363.09;;;21.99;54.61
62510;BME280;48558;48.242;11.654;2023-06-04T08:23:53;96368.53;;;22.68;52.53
62510;BME280;48558;48.242;11.654;2023-06-04T08:28:07;96370.63;;;21.78;52.89
62510;BME280;48558;48.242;11.654;2023-06-04T08:32:21;96363.09;;;21.99;50.07
62510;BME280;48558;48.242;11.654;2023-06-04T08:36:33;96358.59;;;21.77;55.85
62510;BME280;48558;48.242;11.654;2023-06-04T08:40:52;96374.22;;;22.36;53.17
62510;BME280;48558;48.242;11.654;2023-06-04T08:45:09;96373.78;;;23.24;52.95
62510;BME280;48558;48.242;11.654;2023-06-04T08:49:33;96375.34;;;23.79;53.28
62510;BME280;48558;48.242;11.654;2023-06-04T08:53:49;96371.59;;;24.74;48.98
62510;BME280;48558;48.242;11.654;2023-06-04T08:58:05;96378.81;;;23.85;55.07
62510;BME280;48558;48.242;11.654;2023-06-04T09:02:20;96378.81;;;23.85;55.07
62510;BME280;48558;48.242;11.654;2023-06-04T09:06:33;96366.25;;;23.73;46.28
62510;BME280;48558;48.242;11.654;2023-06-04T09:10:48;96364.31;;;23.34;44.59
62510;BME280;48558;48.242;11.654;2023-06-04T09:15:04;96373.59;;;24.59;50.17
62510;BME280;48558;48.242;11.654;2023-06-04T09:19:26;96367.66;;;24.00;54.58
62510;BME280;48558;48.242;11.654;2023-06-04T09:23:48;96357.41;;;26.04;41.07
62510;BME280;48558;48.242;11.654;2023-06-04T09:28:05;96382.78;;;25.16;42.82
62510;BME280;48558;48.242;11.654;2023-06-04T09:32:29;96370.22;;;25.90;45.34
62510;BME280;48558;48.242;11.654;2023-06-04T09:36:43;96373.63;;;25.74;41.00
62510;BME280;48558;48.242;11.654;2023-06-04T09:40:56;96379.97;;;25.59;41.65
62510;BME280;48558;48.242;11.654;2023-06-04T09:45:09;96365.50;;;24.63;45.02
62510;BME280;48558;48.242;11.654;2023-06-04T09:49:23;96364.47;;;25.45;42.91
62510;BME280;48558;48.242;11.654;2023-06-04T09:53:35;96353.44;;;25.85;43.41
62510;BME280;48558;48.242;11.654;2023-06-04T09:57:50;96360.41;;;25.84;43.06
62510;BME280;48558;48.242;11.654;2023-06-04T10:02:03;96360.22;;;26.95;37.36
62510;BME280;48558;48.242;11.654;2023-06-04T10:06:19;96356.81;;;27.44;43.70
62510;BME280;48558;48.242;11.654;2023-06-04T10:10:45;96361.41;;;26.39;40.11
62510;BME280;48558;48.242;11.654;2023-06-04T10:15:10;96362.16;;;26.17;37.39
62510;BME280;48558;48.242;11.654;2023-06-04T10:19:36;96366.50;;;27.33;41.10
62510;BME280;48558;48.242;11.654;2023-06-04T10:23:50;96360.44;;;26.44;36.40
62510;BME280;48558;48.242;11.654;2023-06-04T10:28:04;96364.09;;;25.48;37.52
62510;BME280;48558;48.242;11.654;2023-06-04T10:32:17;96353.69;;;27.17;38.59
62510;BME280;48558;48.242;11.654;2023-06-04T10:36:30;96360.16;;;28.22;36.07
62510;BME280;48558;48.242;11.654;2023-06-04T10:40:43;96361.34;;;28.11;34.45
62510;BME280;48558;48.242;11.654;2023-06-04T10:44:56;96361.28;;;27.62;34.75
62510;BME280;48558;48.242;11.654;2023-06-04T10:49:09;96360.44;;;28.58;35.31
62510;BME280;48558;48.242;11.654;2023-06-04T10:53:36;96344.22;;;28.43;36.69
62510;BME280;48558;48.242;11.654;2023-06-04T10:57:57;96355.88;;;29.14;35.89
62510;BME280;48558;48.242;11.654;2023-06-04T11:02:20;96353.59;;;28.78;34.61
62510;BME280;48558;48.242;11.654;2023-06-04T11:06:33;96338.94;;;28.65;35.17
62510;BME280;48558;48.242;11.654;2023-06-04T11:10:48;96346.09;;;27.67;32.83
62510;BME280;48558;48.242;11.654;2023-06-04T11:15:00;96334.22;;;26.36;35.82
62510;BME280;48558;48.242;11.654;2023-06-04T11:19:13;96333.66;;;27.15;31.47
62510;BME280;48558;48.242;11.654;2023-06-04T11:23:25;96341.66;;;27.49;37.20
62510;BME280;48558;48.242;11.654;2023-06-04T11:27:38;96342.75;;;24.68;38.53
62510;BME280;48558;48.242;11.654;2023-06-04T11:32:00;96335.91;;;26.24;35.29
62510;BME280;48558;48.242;11.654;2023-06-04T11:36:29;96341.91;;;26.51;36.05
62510;BME280;48558;48.242;11.654;2023-06-04T11:40:42;96329.59;;;27.73;33.42
62510;BME280;48558;48.242;11.654;2023-06-04T11:44:57;96338.81;;;28.13;34.64
62510;BME280;48558;48.242;11.654;2023-06-04T11:49:15;96335.69;;;28.43;35.21
62510;BME280;48558;48.242;11.654;2023-06-04T11:53:28;96339.16;;;29.62;31.92
62510;BME280;48558;48.242;11.654;2023-06-04T11:57:41;96325.59;;;29.53;33.15
62510;BME280;48558;48.242;11.654;2023-06-04T12:01:54;96313.81;;;27.55;32.80
62510;BME280;48558;48.242;11.654;2023-06-04T12:06:17;96316.16;;;29.77;29.77
62510;BME280;48558;48.242;11.654;2023-06-04T12:10:42;96309.31;;;29.36;30.92
62510;BME280;48558;48.242;11.654;2023-06-04T12:14:59;96320.19;;;29.13;31.80
62510;BME280;48558;48.242;11.654;2023-06-04T12:19:12;96318.72;;;28.36;32.47
62510;BME280;48558;48.242;11.654;2023-06-04T12:23:26;96317.22;;;28.94;35.83
62510;BME280;48558;48.242;11.654;2023-06-04T12:27:47;96317.81;;;30.07;29.44
62510;BME280;48558;48.242;11.654;2023-06-04T12:32:10;96306.28;;;30.79;31.82
62510;BME280;48558;48.242;11.654;2023-06-04T12:36:27;96303.31;;;31.25;32.09
62510;BME280;48558;48.242;11.654;2023-06-04T12:40:40;96299.13;;;29.33;29.10
62510;BME280;48558;48.242;11.654;2023-06-04T12:44:53;96303.22;;;28.29;30.07
62510;BME280;48558;48.242;11.654;2023-06-04T12:49:06;96300.97;;;28.28;32.48
62510;BME280;48558;48.242;11.654;2023-06-04T12:53:28;96305.84;;;29.82;32.20
62510;BME280;48558;48.242;11.654;2023-06-04T12:57:41;96297.59;;;29.86;30.57
62510;BME280;48558;48.242;11.654;2023-06-04T13:01:56;96289.28;;;28.24;29.54
62510;BME280;48558;48.242;11.654;2023-06-04T13:06:09;96286.91;;;28.89;33.05
62510;BME280;48558;48.242;11.654;2023-06-04T13:10:21;96291.81;;;29.66;32.21
62510;BME280;48558;48.242;11.654;2023-06-04T13:14:34;96285.31;;;27.95;31.54
62510;BME280;48558;48.242;11.654;2023-06-04T13:18:46;96283.03;;;27.44;31.12
62510;BME280;48558;48.242;11.654;2023-06-04T13:23:00;96282.13;;;28.40;33.35
62510;BME280;48558;48.242;11.654;2023-06-04T13:27:12;96280.34;;;29.13;30.61
62510;BME280;48558;48.242;11.654;2023-06-04T13:31:35;96283.00;;;25.96;32.50
62510;BME280;48558;48.242;11.654;2023-06-04T13:35:48;96272.44;;;27.69;32.09
62510;BME280;48558;48.242;11.654;2023-06-04T13:40:00;96281.22;;;28.89;31.96
62510;BME280;48558;48.242;11.654;2023-06-04T13:44:13;96275.00;;;30.33;29.70
62510;BME280;48558;48.242;11.654;2023-06-04T13:48:26;96281.91;;;30.40;31.42
62510;BME280;48558;48.242;11.654;2023-06-04T13:52:39;96275.50;;;30.13;28.67
62510;BME280;48558;48.242;11.654;2023-06-04T13:56:52;96280.03;;;29.09;29.89
62510;BME280;48558;48.242;11.654;2023-06-04T14:01:04;96274.16;;;31.46;27.87
62510;BME280;48558;48.242;11.654;2023-06-04T14:05:18;96271.63;;;30.92;28.06
62510;BME280;48558;48.242;11.654;2023-06-04T14:09:37;96274.16;;;31.17;30.49
62510;BME280;48558;48.242;11.654;2023-06-04T14:13:59;96281.81;;;29.75;28.08
62510;BME280;48558;48.242;11.654;2023-06-04T14:18:12;96277.88;;;29.00;30.84
62510;BME280;48558;48.242;11.654;2023-06-04T14:22:25;96286.34;;;31.08;27.79
62510;BME280;48558;48.242;11.654;2023-06-04T14:26:47;96280.59;;;30.70;27.08
62510;BME280;48558;48.242;11.654;2023-06-04T14:30:59;96270.16;;;28.93;28.42
62510;BME280;48558;48.242;11.654;2023-06-04T14:35:12;96271.09;;;27.45;29.66
62510;BME280;48558;48.242;11.654;2023-06-04T14:39:26;96261.44;;;26.46;32.66
62510;BME280;48558;48.242;11.654;2023-06-04T14:43:39;96258.44;;;25.53;34.38
62510;BME280;48558;48.242;11.654;2023-06-04T14:47:51;96255.44;;;26.04;35.93
62510;BME280;48558;48.242;11.654;2023-06-04T14:52:24;96233.94;;;25.79;37.05
62510;BME280;48558;48.242;11.654;2023-06-04T14:56:36;96254.50;;;25.94;36.97
62510;BME280;48558;48.242;11.654;2023-06-04T15:00:49;96254.91;;;25.91;34.83
62510;BME280;48558;48.242;11.654;2023-06-04T15:05:07;96253.38;;;25.82;33.25
62510;BME280;48558;48.242;11.654;2023-06-04T15:09:19;96244.88;;;25.97;33.17
62510;BME280;48558;48.242;11.654;2023-06-04T15:13:32;96243.25;;;26.64;32.62
62510;BME280;48558;48.242;11.654;2023-06-04T15:17:45;96249.03;;;25.96;35.70
62510;BME280;48558;48.242;11.654;2023-06-04T15:21:58;96241.53;;;24.95;34.75
62510;BME280;48558;48.242;11.654;2023-06-04T15:26:13;96247.63;;;24.71;34.99
62510;BME280;48558;48.242;11.654;2023-06-04T15:30:25;96254.69;;;25.51;36.18
62510;BME280;48558;48.242;11.654;2023-06-04T15:34:38;96260.66;;;24.74;35.77
62510;BME280;48558;48.242;11.654;2023-06-04T15:38:50;96254.03;;;25.22;35.34
62510;BME280;48558;48.242;11.654;2023-06-04T15:43:03;96246.75;;;25.49;36.52
62510;BME280;48558;48.242;11.654;2023-06-04T15:47:15;96252.09;;;25.02;35.92
62510;BME280;48558;48.242;11.654;2023-06-04T15:51:38;96249.22;;;25.83;32.41
62510;BME280;48558;48.242;11.654;2023-06-04T15:55:51;96244.69;;;25.65;35.80
62510;BME280;48558;48.242;11.654;2023-06-04T16:00:13;96243.44;;;25.00;35.15
62510;BME280;48558;48.242;11.654;2023-06-04T16:04:36;96259.16;;;25.31;34.02
62510;BME280;48558;48.242;11.654;2023-06-04T16:08:49;96253.56;;;25.46;35.54
62510;BME280;48558;48.242;11.654;2023-06-04T16:13:02;96251.50;;;24.24;35.43
62510;BME280;48558;48.242;11.654;2023-06-04T16:17:24;96257.09;;;24.45;36.05
62510;BME280;48558;48.242;11.654;2023-06-04T16:21:43;96255.75;;;24.39;35.94
62510;BME280;48558;48.242;11.654;2023-06-04T16:26:07;96263.28;;;24.08;37.30
62510;BME280;48558;48.242;11.654;2023-06-04T16:30:20;96244.09;;;23.65;35.70
62510;BME280;48558;48.242;11.654;2023-06-04T16:34:33;96243.84;;;23.56;39.13
62510;BME280;48558;48.242;11.654;2023-06-04T16:38:56;96235.19;;;24.31;37.07
62510;BME280;48558;48.242;11.654;2023-06-04T16:43:08;96245.41;;;24.41;36.48
62510;BME280;48558;48.242;11.654;2023-06-04T16:47:21;96235.91;;;24.03;37.37
62510;BME280;48558;48.242;11.654;2023-06-04T16:51:37;96229.44;;;24.15;37.48
62510;BME280;48558;48.242;11.654;2023-06-04T16:55:49;96240.31;;;24.11;36.72
62510;BME280;48558;48.242;11.654;2023-06-04T17:00:04;96234.69;;;25.49;34.18
62510;BME280;48558;48.242;11.654;2023-06-04T17:04:37;96232.25;;;25.60;34.44
62510;BME280;48558;48.242;11.654;2023-06-04T17:08:49;96236.00;;;25.48;33.41
62510;BME280;48558;48.242;11.654;2023-06-04T17:13:02;96230.88;;;24.37;35.96
62510;BME280;48558;48.242;11.654;2023-06-04T17:17:15;96222.28;;;23.66;38.23
62510;BME280;48558;48.242;11.654;2023-06-04T17:21:33;96225.81;;;22.57;39.10
62510;BME280;48558;48.242;11.654;2023-06-04T17:25:56;96221.91;;;22.73;39.79
62510;BME280;48558;48.242;11.654;2023-06-04T17:30:11;96231.06;;;23.21;41.01
62510;BME280;48558;48.242;11.654;2023-06-04T17:34:24;96227.84;;;22.83;40.92
62510;BME280;48558;48.242;11.654;2023-06-04T17:38:36;96243.06;;;22.28;41.83
62510;BME280;48558;48.242;11.654;2023-06-04T17:42:49;96244.28;;;22.19;41.05
62510;BME280;48558;48.242;11.654;2023-06-04T17:47:02;96234.94;;;21.85;43.81
62510;BME280;48558;48.242;11.654;2023-06-04T17:51:27;96243.13;;;21.70;45.91
62510;BME280;48558;48.242;11.654;2023-06-04T17:55:40;96250.53;;;21.41;44.84
62510;BME280;48558;48.242;11.654;2023-06-04T17:59:52;96244.94;;;21.22;47.28
62510;BME280;48558;48.242;11.654;2023-06-04T18:04:15;96227.44;;;20.98;51.62
62510;BME280;48558;48.242;11.654;2023-06-04T18:08:29;96237.25;;;20.91;50.01
62510;BME280;48558;48.242;11.654;2023-06-04T18:12:46;96236.47;;;20.72;50.59
62510;BME280;48558;48.242;11.654;2023-06-04T18:16:59;96234.50;;;20.67;57.22
62510;BME280;48558;48.242;11.654;2023-06-04T18:21:12;96242.50;;;20.44;51.27
62510;BME280;48558;48.242;11.654;2023-06-04T18:25:24;96251.88;;;20.47;51.19
62510;BME280;48558;48.242;11.654;2023-06-04T18:29:39;96248.84;;;20.26;51.71
62510;BME280;48558;48.242;11.654;2023-06-04T18:33:53;96250.75;;;20.13;50.74
62510;BME280;48558;48.242;11.654;2023-06-04T18:38:17;96262.97;;;19.91;54.85
62510;BME280;48558;48.242;11.654;2023-06-04T18:42:29;96267.81;;;19.90;53.63
62510;BME280;48558;48.242;11.654;2023-06-04T18:46:42;96265.91;;;19.74;53.16
62510;BME280;48558;48.242;11.654;2023-06-04T18:50:54;96258.38;;;19.64;54.97
62510;BME280;48558;48.242;11.654;2023-06-04T18:55:08;96256.00;;;19.49;57.37
62510;BME280;48558;48.242;11.654;2023-06-04T18:59:21;96255.56;;;19.34;60.21
62510;BME280;48558;48.242;11.654;2023-06-04T19:03:34;96260.06;;;19.13;59.83
62510;BME280;48558;48.242;11.654;2023-06-04T19:07:56;96251.66;;;19.13;60.72
62510;BME280;48558;48.242;11.654;2023-06-04T19:12:09;96230.50;;;18.82;61.69
62510;BME280;48558;48.242;11.654;2023-06-04T19:16:22;96269.38;;;18.91;70.13
62510;BME280;48558;48.242;11.654;2023-06-04T19:20:34;96259.19;;;18.94;66.15
62510;BME280;48558;48.242;11.654;2023-06-04T19:24:47;96257.22;;;18.83;61.83
62510;BME280;48558;48.242;11.654;2023-06-04T19:29:00;96267.97;;;18.68;66.25
62510;BME280;48558;48.242;11.654;2023-06-04T19:33:13;96251.81;;;18.44;73.99
62510;BME280;48558;48.242;11.654;2023-06-04T19:37:25;96249.88;;;18.17;76.91
62510;BME280;48558;48.242;11.654;2023-06-04T19:41:38;96282.16;;;18.24;72.92
62510;BME280;48558;48.242;11.654;2023-06-04T19:45:58;96260.06;;;18.20;75.07
62510;BME280;48558;48.242;11.654;2023-06-04T19:50:13;96276.59;;;18.07;72.46
62510;BME280;48558;48.242;11.654;2023-06-04T19:54:26;96276.38;;;18.00;73.48
62510;BME280;48558;48.242;11.654;2023-06-04T19:58:39;96269.03;;;17.91;73.70
62510;BME280;48558;48.242;11.654;2023-06-04T20:02:51;96282.75;;;18.00;72.77
62510;BME280;48558;48.242;11.654;2023-06-04T20:07:09;96282.75;;;17.89;74.63
62510;BME280;48558;48.242;11.654;2023-06-04T20:11:21;96291.94;;;17.73;80.12
62510;BME280;48558;48.242;11.654;2023-06-04T20:15:35;96284.81;;;17.66;79.86
62510;BME280;48558;48.242;11.654;2023-06-04T20:19:47;96285.84;;;17.47;85.88
62510;BME280;48558;48.242;11.654;2023-06-04T20:24:10;96291.16;;;17.39;85.38
62510;BME280;48558;48.242;11.654;2023-06-04T20:28:33;96288.63;;;17.30;91.09
62510;BME280;48558;48.242;11.654;2023-06-04T20:32:45;96294.47;;;17.27;93.40
62510;BME280;48558;48.242;11.654;2023-06-04T20:36:58;96284.84;;;17.39;87.76
62510;BME280;48558;48.242;11.654;2023-06-04T20:41:14;96279.25;;;17.39;82.52
62510;BME280;48558;48.242;11.654;2023-06-04T20:45:27;96284.09;;;17.55;82.41
62510;BME280;48558;48.242;11.654;2023-06-04T20:49:50;96286.09;;;17.49;87.15
62510;BME280;48558;48.242;11.654;2023-06-04T20:54:02;96277.97;;;17.34;85.67
62510;BME280;48558;48.242;11.654;2023-06-04T20:58:16;96291.19;;;17.50;84.89
62510;BME280;48558;48.242;11.654;2023-06-04T21:02:29;96278.47;;;17.33;88.47
62510;BME280;48558;48.242;11.654;2023-06-04T21:06:42;96292.69;;;17.35;90.03
62510;BME280;48558;48.242;11.654;2023-06-04T21:10:55;96292.44;;;17.21;88.54
62510;BME280;48558;48.242;11.654;2023-06-04T21:15:07;96297.00;;;17.13;89.50
62510;BME280;48558;48.242;11.654;2023-06-04T21:19:20;96292.44;;;17.21;89.70
62510;BME280;48558;48.242;11.654;2023-06-04T21:23:39;96273.63;;;16.94;97.36
62510;BME280;48558;48.242;11.654;2023-06-04T21:27:52;96279.72;;;16.93;92.33
62510;BME280;48558;48.242;11.654;2023-06-04T21:32:05;96286.56;;;16.92;93.18
62510;BME280;48558;48.242;11.654;2023-06-04T21:36:17;96286.03;;;16.88;96.91
62510;BME280;48558;48.242;11.654;2023-06-04T21:40:30;96283.78;;;16.86;97.47
62510;BME280;48558;48.242;11.654;2023-06-04T21:44:52;96294.19;;;16.91;95.13
62510;BME280;48558;48.242;11.654;2023-06-04T21:49:05;96288.06;;;16.82;99.23
62510;BME280;48558;48.242;11.654;2023-06-04T21:53:20;96287.78;;;16.74;99.17
62510;BME280;48558;48.242;11.654;2023-06-04T21:57:32;96282.50;;;16.93;99.41
62510;BME280;48558;48.242;11.654;2023-06-04T22:01:55;96279.94;;;16.89;100.00
62510;BME280;48558;48.242;11.654;2023-06-04T22:06:09;96272.09;;;16.82;100.00
62510;BME280;48558;48.242;11.654;2023-06-04T22:10:21;96267.78;;;16.87;100.00
62510;BME280;48558;48.242;11.654;2023-06-04T22:14:34;96264.50;;;16.88;100.00